| time (UTC) | temp C | wind direction | speed KPH | gust KPH | rain 1hr cm | rain 24hr cm | rain mn cm | humidity % | barometer mb |
| 20260506202656 | 16 | 95 | 1.6 | 3.2 | 0.00 | 0.84 | 0.84 | 97 | 1007.5 |
| 20260506202151 | 16 | 77 | 0.0 | 3.2 | 0.00 | 0.84 | 0.84 | 97 | 1007.3 |
| 20260506201649 | 16 | 73 | 0.0 | 1.6 | 0.00 | 0.84 | 0.84 | 96 | 1007.5 |
| 20260506201145 | 17 | 183 | 3.2 | 4.8 | 0.00 | 0.84 | 0.84 | 96 | 1007.4 |
| 20260506200642 | 17 | 292 | 1.6 | 1.6 | 0.00 | 0.84 | 0.84 | 96 | 1007.4 |
| 20260506200138 | 17 | 89 | 1.6 | 1.6 | 0.00 | 0.84 | 0.84 | 96 | 1007.4 |
| 20260506195635 | 17 | 96 | 0.0 | 1.6 | 0.00 | 0.84 | 0.84 | 96 | 1007.5 |
| 20260506195131 | 17 | 132 | 1.6 | 1.6 | 0.00 | 0.84 | 0.84 | 96 | 1007.4 |
| 20260506194629 | 17 | 77 | 0.0 | 1.6 | 0.00 | 0.84 | 0.84 | 96 | 1007.4 |
| 20260506194125 | 17 | 104 | 0.0 | 1.6 | 0.00 | 0.84 | 0.84 | 97 | 1007.5 |
| 20260506193623 | 16 | 119 | 4.8 | 4.8 | 0.00 | 0.84 | 0.84 | 97 | 1007.6 |
| 20260506193120 | 16 | 62 | 0.0 | 0.0 | 0.00 | 0.84 | 0.84 | 98 | 1007.6 |
| 20260506192617 | 16 | 68 | 0.0 | 0.0 | 0.00 | 0.84 | 0.84 | 98 | 1007.8 |
| 20260506192113 | 16 | 73 | 0.0 | 1.6 | 0.00 | 0.84 | 0.84 | 98 | 1007.8 |
| 20260506191610 | 16 | 118 | 1.6 | 3.2 | 0.00 | 0.84 | 0.84 | 98 | 1007.9 |
| 20260506191105 | 16 | 81 | 0.0 | 0.0 | 0.00 | 0.84 | 0.84 | 99 | 1007.8 |
| 20260506190603 | 16 | 79 | 1.6 | 3.2 | 0.00 | 0.84 | 0.84 | 98 | 1007.7 |
| 20260506190100 | 16 | 73 | 0.0 | 3.2 | 0.00 | 0.84 | 0.84 | 99 | 1008.0 |
| 20260506185557 | 16 | 93 | 0.0 | 1.6 | 0.18 | 0.84 | 0.84 | 98 | 1007.7 |
| 20260506185053 | 16 | 72 | 0.0 | 1.6 | 0.18 | 0.84 | 0.84 | 99 | 1008.0 |
| 20260506184551 | 16 | 75 | 0.0 | 1.6 | 0.00 | 0.81 | 0.81 | 99 | 1008.1 |
| 20260506184048 | 16 | 74 | 0.0 | 1.6 | 0.00 | 0.81 | 0.81 | 99 | 1008.0 |
| 20260506183544 | 16 | 70 | 0.0 | 0.0 | 0.13 | 0.81 | 0.81 | 99 | 1008.0 |
| 20260506183040 | 16 | 69 | 0.0 | 0.0 | 0.13 | 0.81 | 0.81 | 99 | 1008.1 |
| 20260506182538 | 16 | 59 | 1.6 | 3.2 | 0.18 | 0.79 | 0.79 | 99 | 1008.1 |
| 20260506182035 | 16 | 85 | 0.0 | 1.6 | 0.18 | 0.79 | 0.79 | 99 | 1007.9 |
| 20260506181533 | 16 | 84 | 1.6 | 4.8 | 0.00 | 0.76 | 0.76 | 99 | 1008.2 |
| 20260506181029 | 16 | 60 | 0.0 | 3.2 | 0.13 | 0.76 | 0.76 | 99 | 1008.3 |
| 20260506180526 | 16 | 41 | 0.0 | 1.6 | 0.13 | 0.76 | 0.76 | 99 | 1008.3 |
| 20260506180023 | 16 | 64 | 0.0 | 3.2 | 0.18 | 0.74 | 0.74 | 99 | 1008.3 |
| 20260506175519 | 16 | 74 | 0.0 | 1.6 | 0.18 | 0.74 | 0.74 | 99 | 1008.1 |
| 20260506175016 | 16 | 132 | 1.6 | 3.2 | 0.18 | 0.71 | 0.71 | 98 | 1008.3 |
| 20260506174515 | 15 | 115 | 0.0 | 8.0 | 0.18 | 0.71 | 0.71 | 99 | 1008.3 |
| 20260506174010 | 15 | 74 | 0.0 | 3.2 | 0.00 | 0.69 | 0.69 | 99 | 1008.1 |
| 20260506173508 | 16 | 97 | 1.6 | 3.2 | 0.13 | 0.69 | 0.69 | 99 | 1008.3 |
| 20260506173005 | 16 | 65 | 0.0 | 4.8 | 0.00 | 0.66 | 0.66 | 99 | 1008.2 |
| 20260506172502 | 16 | 89 | 1.6 | 1.6 | 0.00 | 0.66 | 0.66 | 99 | 1008.1 |
| 20260506171958 | 16 | 67 | 1.6 | 4.8 | 0.00 | 0.66 | 0.66 | 99 | 1008.2 |
| 20260506171455 | 16 | 126 | 3.2 | 9.7 | 0.18 | 0.66 | 0.66 | 99 | 1008.3 |
| 20260506170953 | 15 | 122 | 1.6 | 3.2 | 0.18 | 0.66 | 0.66 | 99 | 1008.3 |
| 20260506170449 | 15 | 74 | 3.2 | 4.8 | 0.00 | 0.64 | 0.64 | 99 | 1008.1 |
| 20260506165942 | 15 | 78 | 0.0 | 3.2 | 0.00 | 0.64 | 0.64 | 99 | 1008.4 |
| 20260506165441 | 15 | 70 | 0.0 | 3.2 | 0.13 | 0.64 | 0.64 | 99 | 1008.3 |
| 20260506164936 | 15 | 58 | 0.0 | 3.2 | 0.13 | 0.64 | 0.64 | 99 | 1008.5 |
| 20260506164433 | 15 | 152 | 4.8 | 8.0 | 0.00 | 0.61 | 0.61 | 99 | 1008.5 |
| 20260506163931 | 15 | 97 | 3.2 | 4.8 | 0.18 | 0.61 | 0.61 | 99 | 1008.6 |
| 20260506163425 | 15 | 70 | 0.0 | 0.0 | 0.30 | 0.61 | 0.61 | 99 | 1008.7 |
| 20260506162920 | 15 | 188 | 3.2 | 4.8 | 0.13 | 0.58 | 0.58 | 99 | 1008.7 |
| 20260506162418 | 15 | 106 | 0.0 | 0.0 | 0.18 | 0.56 | 0.56 | 99 | 1008.8 |
| 20260506161910 | 15 | 129 | 0.0 | 3.2 | 0.18 | 0.56 | 0.56 | 99 | 1008.8 |
| 20260506161408 | 15 | 70 | 0.0 | 0.0 | 0.13 | 0.53 | 0.53 | 99 | 1008.7 |
| 20260506160905 | 15 | 94 | 0.0 | 1.6 | 0.13 | 0.53 | 0.53 | 99 | 1009.1 |
| 20260506160402 | 15 | 36 | 0.0 | 3.2 | 0.18 | 0.51 | 0.51 | 99 | 1009.2 |
| 20260506155900 | 14 | 70 | 0.0 | 0.0 | 0.30 | 0.51 | 0.51 | 99 | 1008.9 |
| 20260506155356 | 14 | 82 | 0.0 | 1.6 | 0.13 | 0.48 | 0.48 | 99 | 1008.9 |
| 20260506153514 | 13 | 57 | 0.0 | 0.0 | 0.30 | 0.43 | 0.43 | 99 | 1009.5 |
| 20260506153011 | 13 | 51 | 0.0 | 0.0 | 0.18 | 0.41 | 0.41 | 99 | 1009.4 |
| 20260506152508 | 13 | 42 | 0.0 | 1.6 | 0.18 | 0.38 | 0.38 | 98 | 1009.6 |
| 20260506152006 | 13 | 46 | 0.0 | 1.6 | 0.30 | 0.38 | 0.38 | 98 | 1009.6 |
| 20260506151503 | 13 | 39 | 0.0 | 1.6 | 0.13 | 0.36 | 0.36 | 98 | 1009.7 |
| 20260506151001 | 13 | 47 | 0.0 | 0.0 | 0.18 | 0.33 | 0.33 | 98 | 1009.6 |
| 20260506150456 | 13 | 48 | 0.0 | 0.0 | 0.18 | 0.33 | 0.33 | 98 | 1009.6 |
| 20260506145954 | 13 | 49 | 0.0 | 1.6 | 0.13 | 0.30 | 0.30 | 98 | 1009.7 |
| 20260506145450 | 13 | 24 | 1.6 | 1.6 | 0.13 | 0.30 | 0.30 | 98 | 1009.7 |
| 20260506144948 | 13 | 75 | 0.0 | 0.0 | 0.18 | 0.28 | 0.28 | 98 | 1009.8 |
| 20260506144444 | 13 | 56 | 0.0 | 0.0 | 0.18 | 0.28 | 0.28 | 98 | 1010.0 |
| 20260506143943 | 13 | 46 | 0.0 | 3.2 | 0.13 | 0.25 | 0.25 | 98 | 1010.3 |
| 20260506143439 | 13 | 59 | 0.0 | 0.0 | 0.13 | 0.25 | 0.25 | 98 | 1010.5 |
| 20260506142938 | 13 | 41 | 0.0 | 1.6 | 0.18 | 0.23 | 0.23 | 97 | 1010.3 |
| 20260506142435 | 13 | 69 | 0.0 | 0.0 | 0.30 | 0.23 | 0.23 | 97 | 1010.3 |
| 20260506141933 | 13 | 89 | 0.0 | 1.6 | 0.30 | 0.20 | 0.20 | 97 | 1010.4 |
| 20260506141430 | 13 | 85 | 0.0 | 0.0 | 0.30 | 0.18 | 0.18 | 96 | 1010.3 |
| 20260506140929 | 13 | 84 | 0.0 | 0.0 | 0.30 | 0.15 | 0.15 | 96 | 1010.5 |
| 20260506140426 | 13 | 84 | 0.0 | 0.0 | 0.48 | 0.13 | 0.13 | 95 | 1010.7 |
| 20260506135922 | 13 | 76 | 0.0 | 1.6 | 0.48 | 0.10 | 0.10 | 95 | 1010.6 |
| 20260506135420 | 13 | 69 | 0.0 | 1.6 | 0.18 | 0.05 | 0.05 | 94 | 1010.4 |
| 20260506134915 | 13 | 45 | 0.0 | 0.0 | 0.00 | 0.03 | 0.03 | 92 | 1010.4 |
| 20260506134412 | 13 | 44 | 0.0 | 1.6 | 0.13 | 0.03 | 0.03 | 91 | 1010.1 |
| 20260506133909 | 14 | 74 | 0.0 | 1.6 | 0.13 | 0.03 | 0.03 | 90 | 1010.4 |
| 20260506133406 | 13 | 48 | 0.0 | 1.6 | 0.00 | 0.00 | 0.00 | 89 | 1010.3 |
| 20260506132902 | 13 | 45 | 0.0 | 1.6 | 0.00 | 0.00 | 0.00 | 88 | 1010.1 |
| 20260506132359 | 13 | 48 | 0.0 | 1.6 | 0.00 | 0.00 | 0.00 | 88 | 1010.2 |
| 20260506131858 | 13 | 32 | 1.6 | 3.2 | 0.00 | 0.00 | 0.00 | 87 | 1010.3 |
| 20260506131353 | 13 | 91 | 0.0 | 1.6 | 0.00 | 0.00 | 0.00 | 88 | 1010.2 |
| 20260506130851 | 13 | 33 | 1.6 | 1.6 | 0.00 | 0.00 | 0.00 | 89 | 1010.2 |
| 20260506130347 | 13 | 87 | 0.0 | 1.6 | 0.00 | 0.00 | 0.00 | 90 | 1010.1 |
| 20260506125845 | 13 | 64 | 0.0 | 1.6 | 0.00 | 0.00 | 0.00 | 91 | 1010.0 |
| 20260506125343 | 13 | 91 | 0.0 | 3.2 | 0.00 | 0.00 | 0.00 | 91 | 1010.1 |
| 20260506124841 | 13 | 89 | 0.0 | 0.0 | 0.00 | 0.00 | 0.00 | 92 | 1009.8 |
| 20260506124338 | 12 | 44 | 0.0 | 0.0 | 0.00 | 0.00 | 0.00 | 92 | 1010.0 |
| 20260506123836 | 12 | 48 | 0.0 | 0.0 | 0.00 | 0.00 | 0.00 | 92 | 1010.3 |
| 20260506123334 | 12 | 113 | 0.0 | 1.6 | 0.00 | 0.00 | 0.00 | 92 | 1010.2 |
| 20260506122831 | 12 | 86 | 0.0 | 1.6 | 0.00 | 0.00 | 0.00 | 92 | 1010.3 |
| 20260506122327 | 12 | 54 | 0.0 | 1.6 | 0.00 | 0.00 | 0.00 | 92 | 1010.5 |
| 20260506121826 | 12 | 93 | 0.0 | 1.6 | 0.00 | 0.00 | 0.00 | 92 | 1010.5 |
| 20260506121322 | 12 | 69 | 0.0 | 0.0 | 0.00 | 0.00 | 0.00 | 92 | 1010.6 |
| 20260506120820 | 12 | 61 | 0.0 | 1.6 | 0.00 | 0.00 | 0.00 | 92 | 1011.0 |
| 20260506120318 | 12 | 76 | 0.0 | 0.0 | 0.00 | 0.00 | 0.00 | 92 | 1011.0 |
| 20260506115815 | 12 | 57 | 0.0 | 1.6 | 0.00 | 0.00 | 0.00 | 92 | 1011.1 |
| 20260506115313 | 12 | 37 | 1.6 | 1.6 | 0.00 | 0.00 | 0.00 | 92 | 1011.0 |
| 20260506114810 | 12 | 27 | 1.6 | 1.6 | 0.00 | 0.00 | 0.00 | 93 | 1010.7 |
| 20260506114308 | 12 | 45 | 0.0 | 1.6 | 0.00 | 0.00 | 0.00 | 93 | 1010.6 |
| 20260506113806 | 12 | 45 | 0.0 | 1.6 | 0.00 | 0.00 | 0.00 | 94 | 1010.6 |
| 20260506113304 | 12 | 47 | 0.0 | 0.0 | 0.00 | 0.00 | 0.00 | 94 | 1010.6 |
| 20260506112800 | 12 | 47 | 0.0 | 1.6 | 0.00 | 0.00 | 0.00 | 94 | 1010.8 |
| 20260506112257 | 11 | 50 | 0.0 | 1.6 | 0.00 | 0.00 | 0.00 | 95 | 1010.5 |
| 20260506111754 | 11 | 336 | 1.6 | 3.2 | 0.00 | 0.00 | 0.00 | 95 | 1010.6 |
| 20260506111253 | 11 | 47 | 0.0 | 1.6 | 0.00 | 0.00 | 0.00 | 95 | 1009.8 |
| 20260506110749 | 11 | 62 | 0.0 | 1.6 | 0.00 | 0.00 | 0.00 | 95 | 1010.1 |
| 20260506110247 | 11 | 60 | 0.0 | 1.6 | 0.00 | 0.00 | 0.00 | 96 | 1010.2 |
| 20260506105743 | 11 | 76 | 0.0 | 0.0 | 0.00 | 0.00 | 0.00 | 96 | 1010.6 |
| 20260506105240 | 11 | 84 | 1.6 | 1.6 | 0.00 | 0.00 | 0.00 | 96 | 1010.4 |
| 20260506104738 | 11 | 17 | 1.6 | 1.6 | 0.00 | 0.00 | 0.00 | 96 | 1010.0 |
| 20260506104235 | 11 | 21 | 0.0 | 0.0 | 0.00 | 0.00 | 0.00 | 96 | 1009.8 |
| 20260506103732 | 11 | 21 | 1.6 | 1.6 | 0.00 | 0.00 | 0.00 | 96 | 1010.1 |
| 20260506103230 | 11 | 21 | 0.0 | 0.0 | 0.00 | 0.00 | 0.00 | 96 | 1010.3 |
| 20260506102727 | 11 | 20 | 0.0 | 1.6 | 0.00 | 0.00 | 0.00 | 96 | 1010.5 |
| 20260506102225 | 11 | 26 | 1.6 | 1.6 | 0.00 | 0.00 | 0.00 | 96 | 1010.1 |
| 20260506101722 | 11 | 27 | 0.0 | 0.0 | 0.00 | 0.00 | 0.00 | 96 | 1010.3 |
| 20260506101218 | 11 | 27 | 0.0 | 0.0 | 0.00 | 0.00 | 0.00 | 96 | 1010.3 |
| 20260506100716 | 11 | 26 | 0.0 | 0.0 | 0.00 | 0.00 | 0.00 | 96 | 1010.4 |
| 20260506100214 | 11 | 26 | 0.0 | 0.0 | 0.00 | 0.00 | 0.00 | 96 | 1010.3 |
| 20260506095712 | 11 | 26 | 0.0 | 1.6 | 0.00 | 0.00 | 0.00 | 95 | 1010.2 |
| 20260506095209 | 11 | 26 | 0.0 | 0.0 | 0.00 | 0.00 | 0.00 | 95 | 1010.0 |
| 20260506094706 | 11 | 26 | 0.0 | 1.6 | 0.00 | 0.00 | 0.00 | 95 | 1010.2 |
| 20260506094204 | 11 | 26 | 0.0 | 1.6 | 0.00 | 0.00 | 0.00 | 95 | 1010.2 |
| 20260506093703 | 11 | 26 | 0.0 | 1.6 | 0.00 | 0.00 | 0.00 | 95 | 1010.2 |
| 20260506093159 | 11 | 29 | 0.0 | 1.6 | 0.00 | 0.00 | 0.00 | 95 | 1010.3 |
| 20260506092657 | 11 | 29 | 0.0 | 1.6 | 0.00 | 0.00 | 0.00 | 95 | 1010.2 |
| 20260506092154 | 11 | 29 | 0.0 | 0.0 | 0.00 | 0.00 | 0.00 | 95 | 1010.2 |
| 20260506091652 | 11 | 29 | 0.0 | 0.0 | 0.00 | 0.00 | 0.00 | 95 | 1010.4 |
| 20260506091149 | 11 | 29 | 0.0 | 1.6 | 0.00 | 0.00 | 0.00 | 94 | 1010.4 |
| 20260506090647 | 11 | 29 | 0.0 | 0.0 | 0.00 | 0.00 | 0.00 | 94 | 1010.3 |
| 20260506090143 | 11 | 29 | 0.0 | 0.0 | 0.00 | 0.00 | 0.00 | 94 | 1010.4 |
| 20260506085640 | 11 | 29 | 1.6 | 1.6 | 0.00 | 0.00 | 0.00 | 94 | 1010.4 |
| 20260506085136 | 11 | 29 | 0.0 | 1.6 | 0.00 | 0.00 | 0.00 | 94 | 1010.4 |
| 20260506084633 | 11 | 29 | 0.0 | 0.0 | 0.00 | 0.00 | 0.00 | 93 | 1010.4 |
| 20260506084130 | 11 | 29 | 0.0 | 0.0 | 0.00 | 0.00 | 0.00 | 93 | 1010.8 |
| 20260506083627 | 11 | 29 | 0.0 | 0.0 | 0.00 | 0.00 | 0.00 | 93 | 1010.8 |
| 20260506083125 | 11 | 29 | 0.0 | 1.6 | 0.00 | 0.00 | 0.00 | 93 | 1010.9 |
| 20260506082621 | 11 | 29 | 0.0 | 1.6 | 0.00 | 0.00 | 0.00 | 93 | 1010.9 |
| 20260506082117 | 11 | 29 | 0.0 | 0.0 | 0.00 | 0.00 | 0.00 | 93 | 1011.0 |
| 20260506081615 | 11 | 29 | 0.0 | 0.0 | 0.00 | 0.00 | 0.00 | 93 | 1010.9 |
| 20260506081112 | 11 | 29 | 0.0 | 0.0 | 0.00 | 0.00 | 0.00 | 93 | 1010.9 |
| 20260506080610 | 11 | 29 | 0.0 | 1.6 | 0.00 | 0.00 | 0.00 | 93 | 1011.1 |
| 20260506080106 | 11 | 29 | 0.0 | 1.6 | 0.00 | 0.00 | 0.00 | 92 | 1011.0 |
| 20260506073050 | 12 | 29 | 0.0 | 0.0 | 0.00 | 0.00 | 0.00 | 91 | 1011.2 |
| 20260506072547 | 12 | 29 | 0.0 | 1.6 | 0.00 | 0.00 | 0.00 | 91 | 1011.1 |
| 20260506072045 | 12 | 29 | 0.0 | 1.6 | 0.00 | 0.00 | 0.00 | 91 | 1011.2 |
| 20260506071542 | 12 | 29 | 1.6 | 1.6 | 0.00 | 0.00 | 0.00 | 91 | 1011.3 |
| 20260506071040 | 12 | 29 | 0.0 | 1.6 | 0.00 | 0.00 | 0.00 | 91 | 1011.2 |
| 20260506070537 | 12 | 29 | 0.0 | 0.0 | 0.00 | 0.00 | 0.00 | 92 | 1011.4 |
| 20260506062514 | 13 | 30 | 1.6 | 1.6 | 0.00 | 0.00 | 0.00 | 91 | 1011.8 |
| 20260506062011 | 13 | 30 | 0.0 | 1.6 | 0.00 | 0.00 | 0.00 | 91 | 1011.8 |
| 20260506061506 | 13 | 30 | 0.0 | 0.0 | 0.00 | 0.00 | 0.00 | 90 | 1011.8 |
| 20260506061004 | 13 | 30 | 0.0 | 1.6 | 0.00 | 0.00 | 0.00 | 91 | 1011.7 |
| 20260506060503 | 13 | 30 | 0.0 | 0.0 | 0.00 | 0.00 | 0.00 | 91 | 1011.9 |
| 20260506050932 | 13 | 30 | 0.0 | 0.0 | 0.00 | 0.00 | 0.00 | 92 | 1012.0 |
| 20260506050429 | 13 | 30 | 0.0 | 0.0 | 0.00 | 0.00 | 0.00 | 93 | 1012.0 |
| 20260506044919 | 13 | 30 | 0.0 | 0.0 | 0.00 | 0.00 | 0.00 | 93 | 1011.7 |
| 20260506044418 | 13 | 30 | 0.0 | 0.0 | 0.00 | 0.00 | 0.00 | 94 | 1011.7 |
| 20260506043914 | 14 | 30 | 0.0 | 0.0 | 0.00 | 0.00 | 0.00 | 94 | 1011.7 |
| 20260506043412 | 14 | 30 | 0.0 | 0.0 | 0.00 | 0.00 | 0.00 | 95 | 1011.7 |
| 20260506042910 | 14 | 30 | 0.0 | 0.0 | 0.00 | 0.00 | 0.00 | 96 | 1011.8 |
| 20260506042409 | 14 | 30 | 0.0 | 0.0 | 0.00 | 0.00 | 0.00 | 96 | 1011.8 |
| 20260506041907 | 14 | 30 | 0.0 | 0.0 | 0.00 | 0.00 | 0.00 | 95 | 1011.7 |
| 20260506041404 | 14 | 29 | 0.0 | 0.0 | 0.00 | 0.00 | 0.00 | 95 | 1011.7 |
| 20260506040901 | 14 | 28 | 0.0 | 0.0 | 0.00 | 0.00 | 0.00 | 95 | 1011.7 |
| 20260506040358 | 14 | 28 | 0.0 | 1.6 | 0.00 | 0.00 | 0.00 | 95 | 1011.6 |
| 20260506035854 | 15 | 27 | 1.6 | 1.6 | 0.00 | 0.00 | 0.00 | 95 | 1011.5 |
| 20260506035352 | 15 | 29 | 0.0 | 1.6 | 0.00 | 0.00 | 0.00 | 95 | 1011.4 |
| 20260506034849 | 14 | 33 | 0.0 | 1.6 | 0.00 | 0.00 | 0.00 | 95 | 1011.4 |
| 20260506034346 | 14 | 33 | 0.0 | 3.2 | 0.00 | 0.00 | 0.00 | 95 | 1011.2 |
| 20260506033843 | 15 | 36 | 0.0 | 1.6 | 0.00 | 0.00 | 0.00 | 96 | 1011.0 |
| 20260506033340 | 15 | 36 | 0.0 | 3.2 | 0.00 | 0.00 | 0.00 | 96 | 1011.1 |
| 20260506032837 | 15 | 56 | 0.0 | 1.6 | 0.00 | 0.00 | 0.00 | 96 | 1011.1 |
| 20260506032333 | 15 | 57 | 0.0 | 1.6 | 0.00 | 0.00 | 0.00 | 96 | 1011.2 |
| 20260506031830 | 15 | 57 | 1.6 | 1.6 | 0.00 | 0.00 | 0.00 | 95 | 1010.9 |
| 20260506031328 | 15 | 47 | 0.0 | 0.0 | 0.00 | 0.00 | 0.00 | 95 | 1010.9 |
| 20260506030825 | 15 | 35 | 0.0 | 1.6 | 0.00 | 0.00 | 0.00 | 95 | 1011.0 |
| 20260506030323 | 15 | 35 | 0.0 | 0.0 | 0.00 | 0.00 | 0.00 | 94 | 1010.9 |
| 20260506025820 | 15 | 35 | 0.0 | 1.6 | 0.00 | 0.00 | 0.00 | 94 | 1011.0 |
| 20260506025316 | 15 | 50 | 0.0 | 0.0 | 0.00 | 0.00 | 0.00 | 93 | 1010.7 |
| 20260506024813 | 15 | 50 | 0.0 | 1.6 | 0.00 | 0.00 | 0.00 | 93 | 1010.9 |
| 20260506024310 | 15 | 52 | 0.0 | 1.6 | 0.00 | 0.00 | 0.00 | 93 | 1011.1 |
| 20260506023806 | 15 | 53 | 0.0 | 0.0 | 0.00 | 0.00 | 0.00 | 93 | 1011.3 |
| 20260506023303 | 15 | 53 | 0.0 | 0.0 | 0.00 | 0.00 | 0.00 | 92 | 1011.3 |
| 20260506022759 | 15 | 37 | 1.6 | 1.6 | 0.00 | 0.00 | 0.00 | 91 | 1011.7 |
| 20260506022258 | 15 | 43 | 0.0 | 3.2 | 0.00 | 0.00 | 0.00 | 90 | 1011.2 |
| 20260506021756 | 16 | 30 | 1.6 | 3.2 | 0.00 | 0.00 | 0.00 | 88 | 1011.4 |
| 20260506021252 | 16 | 44 | 0.0 | 1.6 | 0.00 | 0.00 | 0.00 | 88 | 1010.9 |
| 20260506020749 | 16 | 50 | 1.6 | 1.6 | 0.00 | 0.00 | 0.00 | 88 | 1010.9 |
| 20260506020247 | 16 | 31 | 3.2 | 3.2 | 0.00 | 0.00 | 0.00 | 89 | 1011.0 |
| 20260506015744 | 15 | 41 | 1.6 | 3.2 | 0.00 | 0.00 | 0.00 | 90 | 1010.8 |
| 20260506015241 | 15 | 87 | 1.6 | 1.6 | 0.00 | 0.00 | 0.00 | 90 | 1011.1 |
| 20260506014738 | 16 | 84 | 0.0 | 1.6 | 0.00 | 0.00 | 0.00 | 90 | 1010.9 |
| 20260506014235 | 16 | 38 | 0.0 | 1.6 | 0.00 | 0.00 | 0.00 | 90 | 1010.8 |
| 20260506013732 | 16 | 35 | 1.6 | 1.6 | 0.00 | 0.00 | 0.00 | 89 | 1010.8 |
| 20260506013229 | 16 | 31 | 0.0 | 0.0 | 0.00 | 0.00 | 0.00 | 87 | 1010.7 |
| 20260506012725 | 16 | 30 | 1.6 | 1.6 | 0.00 | 0.00 | 0.00 | 85 | 1010.6 |
| 20260506012222 | 16 | 65 | 0.0 | 1.6 | 0.00 | 0.00 | 0.00 | 83 | 1010.7 |
| 20260506011720 | 17 | 65 | 1.6 | 1.6 | 0.00 | 0.00 | 0.00 | 82 | 1010.6 |
| 20260506011216 | 17 | 64 | 1.6 | 1.6 | 0.00 | 0.00 | 0.00 | 79 | 1010.6 |
| 20260506010714 | 17 | 65 | 1.6 | 1.6 | 0.00 | 0.00 | 0.00 | 78 | 1010.9 |
| 20260506010211 | 17 | 67 | 1.6 | 1.6 | 0.00 | 0.00 | 0.00 | 79 | 1010.6 |
| 20260506005709 | 17 | 66 | 0.0 | 0.0 | 0.00 | 0.00 | 0.00 | 78 | 1010.5 |
| 20260506005205 | 17 | 66 | 0.0 | 0.0 | 0.00 | 0.00 | 0.00 | 77 | 1010.4 |
| 20260506004701 | 17 | 67 | 1.6 | 1.6 | 0.00 | 0.00 | 0.00 | 76 | 1010.3 |
| 20260506004159 | 17 | 42 | 0.0 | 0.0 | 0.00 | 0.00 | 0.00 | 75 | 1010.5 |
| 20260506003654 | 17 | 45 | 0.0 | 1.6 | 0.00 | 0.00 | 0.00 | 74 | 1010.4 |
| 20260506003151 | 17 | 44 | 1.6 | 1.6 | 0.00 | 0.00 | 0.00 | 76 | 1010.4 |
| 20260506002647 | 17 | 31 | 0.0 | 1.6 | 0.00 | 0.00 | 0.00 | 77 | 1010.2 |
| 20260506002143 | 17 | 39 | 1.6 | 3.2 | 0.00 | 0.00 | 0.00 | 76 | 1010.1 |
| 20260506001639 | 17 | 38 | 1.6 | 3.2 | 0.00 | 0.00 | 0.00 | 75 | 1009.8 |
| 20260506001137 | 18 | 43 | 1.6 | 3.2 | 0.00 | 0.00 | 0.00 | 72 | 1009.7 |
| 20260506000634 | 17 | 42 | 1.6 | 3.2 | 0.00 | 0.00 | 0.00 | 72 | 1009.8 |
| 20260506000131 | 18 | 50 | 0.0 | 0.0 | 0.00 | 0.00 | 0.00 | 73 | 1009.8 |
| 20260505235629 | 18 | 50 | 1.6 | 1.6 | 0.00 | 0.00 | 0.00 | 71 | 1009.7 |
| 20260505235126 | 18 | 50 | 0.0 | 1.6 | 0.00 | 0.00 | 0.00 | 71 | 1009.6 |
| 20260505234623 | 18 | 50 | 0.0 | 1.6 | 0.00 | 0.00 | 0.00 | 72 | 1009.6 |
| 20260505234119 | 18 | 49 | 0.0 | 0.0 | 0.00 | 0.00 | 0.00 | 72 | 1009.5 |
| 20260505233617 | 18 | 48 | 0.0 | 0.0 | 0.00 | 0.00 | 0.00 | 72 | 1009.5 |
| 20260505233114 | 18 | 48 | 0.0 | 1.6 | 0.00 | 0.00 | 0.00 | 72 | 1009.6 |
| 20260505232612 | 18 | 50 | 1.6 | 1.6 | 0.00 | 0.00 | 0.00 | 71 | 1009.8 |
| 20260505232109 | 18 | 53 | 0.0 | 1.6 | 0.00 | 0.00 | 0.00 | 72 | 1009.8 |
| 20260505231606 | 18 | 59 | 0.0 | 0.0 | 0.00 | 0.00 | 0.00 | 72 | 1009.8 |
| 20260505231104 | 18 | 57 | 0.0 | 1.6 | 0.00 | 0.00 | 0.00 | 72 | 1009.8 |
| 20260505230556 | 18 | 60 | 0.0 | 0.0 | 0.00 | 0.00 | 0.00 | 72 | 1009.6 |
| 20260505230052 | 18 | 25 | 1.6 | 1.6 | 0.00 | 0.00 | 0.00 | 70 | 1009.5 |
| 20260505225550 | 19 | 36 | 1.6 | 1.6 | 0.00 | 0.00 | 0.00 | 70 | 1009.6 |
| 20260505225045 | 19 | 35 | 1.6 | 1.6 | 0.00 | 0.00 | 0.00 | 67 | 1009.3 |
| 20260505224543 | 19 | 79 | 0.0 | 0.0 | 0.00 | 0.00 | 0.00 | 70 | 1009.4 |
| 20260505224040 | 18 | 72 | 0.0 | 1.6 | 0.00 | 0.00 | 0.00 | 70 | 1009.5 |
| 20260505223537 | 18 | 81 | 0.0 | 1.6 | 0.00 | 0.00 | 0.00 | 70 | 1009.4 |
| 20260505223033 | 19 | 81 | 0.0 | 1.6 | 0.00 | 0.00 | 0.00 | 71 | 1009.4 |
| 20260505222529 | 19 | 43 | 1.6 | 3.2 | 0.00 | 0.00 | 0.00 | 69 | 1009.3 |
| 20260505222026 | 19 | 43 | 1.6 | 8.0 | 0.00 | 0.00 | 0.00 | 68 | 1009.7 |
| 20260505221523 | 19 | 21 | 1.6 | 4.8 | 0.00 | 0.00 | 0.00 | 69 | 1009.8 |
| 20260505221019 | 19 | 129 | 3.2 | 8.0 | 0.00 | 0.00 | 0.00 | 67 | 1009.7 |
| 20260505220517 | 18 | 8 | 1.6 | 4.8 | 0.00 | 0.00 | 0.00 | 71 | 1009.5 |
| 20260505220015 | 19 | 55 | 3.2 | 4.8 | 0.00 | 0.00 | 0.00 | 71 | 1009.3 |
| 20260505215512 | 20 | 19 | 6.4 | 11.3 | 0.00 | 0.00 | 0.00 | 67 | 1009.7 |
| 20260505215010 | 22 | 59 | 9.7 | 17.7 | 0.00 | 0.00 | 0.00 | 55 | 1009.5 |
| 20260505214508 | 25 | 287 | 4.8 | 11.3 | 0.00 | 0.00 | 0.00 | 35 | 1008.8 |
| 20260505214004 | 25 | 60 | 4.8 | 12.9 | 0.00 | 0.00 | 0.00 | 32 | 1008.0 |
| 20260505213502 | 26 | 286 | 3.2 | 4.8 | 0.00 | 0.00 | 0.00 | 30 | 1008.0 |
| 20260505212958 | 26 | 272 | 3.2 | 8.0 | 0.00 | 0.00 | 0.00 | 30 | 1007.9 |
| 20260505212455 | 26 | 242 | 4.8 | 11.3 | 0.00 | 0.00 | 0.00 | 30 | 1007.6 |
| 20260505211952 | 26 | 303 | 6.4 | 14.5 | 0.00 | 0.00 | 0.00 | 31 | 1007.5 |
| 20260505211449 | 26 | 262 | 4.8 | 4.8 | 0.00 | 0.00 | 0.00 | 30 | 1007.3 |
| 20260505210945 | 26 | 294 | 4.8 | 11.3 | 0.00 | 0.00 | 0.00 | 30 | 1007.3 |
| 20260505210442 | 26 | 356 | 4.8 | 9.7 | 0.00 | 0.00 | 0.00 | 29 | 1007.2 |
| 20260505205939 | 26 | 93 | 1.6 | 4.8 | 0.00 | 0.00 | 0.00 | 30 | 1007.3 |
| 20260505205438 | 26 | 202 | 1.6 | 8.0 | 0.00 | 0.00 | 0.00 | 32 | 1007.1 |
| 20260505204934 | 27 | 265 | 1.6 | 12.9 | 0.00 | 0.00 | 0.00 | 30 | 1007.0 |
| 20260505204432 | 27 | 260 | 3.2 | 8.0 | 0.00 | 0.00 | 0.00 | 31 | 1007.0 |
| 20260505203929 | 27 | 232 | 3.2 | 11.3 | 0.00 | 0.00 | 0.00 | 30 | 1007.0 |
| 20260505203425 | 26 | 224 | 9.7 | 16.1 | 0.00 | 0.00 | 0.00 | 30 | 1007.1 |
| 20260505202922 | 26 | 358 | 4.8 | 12.9 | 0.00 | 0.00 | 0.00 | 31 | 1007.0 |